Valley Springs, Arkansas
Current Conditions -  °F | °C
As of 5:53 PM on Monday 20 Oct 2014 (Local Time) from KHRO Reporting Station
Clear Clear  
Wind Chill: 67°   Ceiling: Unl
Heat Index: 67°   Visibility: 10mi
Dew Point: 59°   Wind: 3mph
Humidity: 76%   Direction: 260°W
Pressure: 30.04"   Gusts: NA
Location:  36.16°N, 92.99°W
Report Text: KHRO 202253Z AUTO 26003KT 10SM CLR 19/15 A3004 RMK AO2 SLP163 T01940150
Loading
Personal Weather Stations






























Interactive Weather Map
Tropical Storm Tracking
New forecast layout! Learn more

10-Day Weather Forecast

Advertisements
Track Severe Weather on mobile